Terminal Aerodrome Forecast
Issued by NWS

Home | Current Version | Previous Version | Graphics & Text | Print | Product List | Glossary On
Versions: 1 2 3 4 5 6 7 8 9 10 11 12 13 14 15 16 17 18 19 20 21 22 23 24 25 26 27 28 29 30 31 32 33 34 35
651
FTUS43 KLOT 151444 AAA
TAFMDW
TAF AMD
KMDW 151444Z 1515/1612 20012KT 3SM -RA BR OVC007
     FM151530 23012KT 3SM -DZ BR SCT004 OVC006
     FM151900 25012G18KT P6SM SCT008 BKN015
     FM152100 28016G24KT P6SM SCT020
     FM160000 29014G22KT P6SM BKN025
     FM160800 31008KT P6SM BKN020=

USA.gov is the U.S. government's official web portal to all federal, state and local government web resources and services.